sensor_id;sensor_type;location;lat;lon;timestamp;pressure;altitude;pressure_sealevel;temperature;humidity
84283;BME280;74440;52.600;21.450;2024-01-15T00:03:21;99300;;;1.02;80
84283;BME280;74440;52.600;21.450;2024-01-15T00:07:23;99300;;;0.90;81
84283;BME280;74440;52.600;21.450;2024-01-15T00:11:24;99300;;;0.95;80
84283;BME280;74440;52.600;21.450;2024-01-15T00:15:26;99300;;;1.01;80
84283;BME280;74440;52.600;21.450;2024-01-15T00:19:31;99300;;;1.06;80
84283;BME280;74440;52.600;21.450;2024-01-15T00:23:33;99300;;;0.93;80
84283;BME280;74440;52.600;21.450;2024-01-15T00:27:34;99300;;;0.94;80
84283;BME280;74440;52.600;21.450;2024-01-15T00:31:36;99300;;;1.00;80
84283;BME280;74440;52.600;21.450;2024-01-15T00:35:37;99300;;;1.06;80
84283;BME280;74440;52.600;21.450;2024-01-15T00:39:51;99300;;;1.08;80
84283;BME280;74440;52.600;21.450;2024-01-15T00:43:53;99200;;;0.94;80
84283;BME280;74440;52.600;21.450;2024-01-15T00:47:55;99200;;;0.98;80
84283;BME280;74440;52.600;21.450;2024-01-15T00:51:57;99200;;;1.00;80
84283;BME280;74440;52.600;21.450;2024-01-15T00:55:59;99200;;;1.05;80
84283;BME280;74440;52.600;21.450;2024-01-15T01:00:01;99200;;;0.88;80
84283;BME280;74440;52.600;21.450;2024-01-15T01:04:03;99200;;;0.88;80
84283;BME280;74440;52.600;21.450;2024-01-15T01:08:04;99200;;;0.87;81
84283;BME280;74440;52.600;21.450;2024-01-15T01:12:06;99200;;;0.90;81
84283;BME280;74440;52.600;21.450;2024-01-15T01:16:21;99200;;;0.90;81
84283;BME280;74440;52.600;21.450;2024-01-15T01:20:22;99200;;;0.79;81
84283;BME280;74440;52.600;21.450;2024-01-15T01:24:24;99200;;;0.80;81
84283;BME280;74440;52.600;21.450;2024-01-15T01:28:25;99200;;;0.84;81
84283;BME280;74440;52.600;21.450;2024-01-15T01:32:27;99200;;;0.90;81
84283;BME280;74440;52.600;21.450;2024-01-15T01:36:28;99200;;;0.75;81
84283;BME280;74440;52.600;21.450;2024-01-15T01:40:30;99200;;;0.74;82
84283;BME280;74440;52.600;21.450;2024-01-15T01:44:31;99200;;;0.76;82
84283;BME280;74440;52.600;21.450;2024-01-15T01:48:33;99200;;;0.81;82
84283;BME280;74440;52.600;21.450;2024-01-15T01:52:50;99100;;;0.80;82
84283;BME280;74440;52.600;21.450;2024-01-15T01:56:52;99100;;;0.68;82
84283;BME280;74440;52.600;21.450;2024-01-15T02:00:54;99100;;;0.71;82
84283;BME280;74440;52.600;21.450;2024-01-15T02:04:55;99100;;;0.77;81
84283;BME280;74440;52.600;21.450;2024-01-15T02:08:57;99100;;;0.83;81
84283;BME280;74440;52.600;21.450;2024-01-15T02:12:59;99100;;;0.68;81
84283;BME280;74440;52.600;21.450;2024-01-15T02:17:01;99100;;;0.73;81
84283;BME280;74440;52.600;21.450;2024-01-15T02:21:02;99100;;;0.75;81
84283;BME280;74440;52.600;21.450;2024-01-15T02:25:04;99100;;;0.78;82
84283;BME280;74440;52.600;21.450;2024-01-15T02:29:20;99100;;;0.75;82
84283;BME280;74440;52.600;21.450;2024-01-15T02:33:21;99100;;;0.62;83
84283;BME280;74440;52.600;21.450;2024-01-15T02:37:23;99100;;;0.62;83
84283;BME280;74440;52.600;21.450;2024-01-15T02:41:25;99100;;;0.62;83
84283;BME280;74440;52.600;21.450;2024-01-15T02:45:27;99100;;;0.69;83
84283;BME280;74440;52.600;21.450;2024-01-15T02:49:28;99100;;;0.55;83
84283;BME280;74440;52.600;21.450;2024-01-15T02:53:30;99100;;;0.57;83
84283;BME280;74440;52.600;21.450;2024-01-15T02:57:31;99100;;;0.60;83
84283;BME280;74440;52.600;21.450;2024-01-15T03:01:33;99100;;;0.63;83
84283;BME280;74440;52.600;21.450;2024-01-15T03:05:49;99100;;;0.63;83
84283;BME280;74440;52.600;21.450;2024-01-15T03:09:51;99000;;;0.50;83
84283;BME280;74440;52.600;21.450;2024-01-15T03:13:52;99000;;;0.53;83
84283;BME280;74440;52.600;21.450;2024-01-15T03:17:54;99000;;;0.61;83
84283;BME280;74440;52.600;21.450;2024-01-15T03:21:56;99000;;;0.68;82
84283;BME280;74440;52.600;21.450;2024-01-15T03:25:57;99000;;;0.55;83
84283;BME280;74440;52.600;21.450;2024-01-15T03:29:59;99000;;;0.60;83
84283;BME280;74440;52.600;21.450;2024-01-15T03:34:01;99000;;;0.63;83
84283;BME280;74440;52.600;21.450;2024-01-15T03:38:03;99000;;;0.66;83
84283;BME280;74440;52.600;21.450;2024-01-15T03:42:19;99000;;;0.66;83
84283;BME280;74440;52.600;21.450;2024-01-15T03:46:21;99000;;;0.54;83
84283;BME280;74440;52.600;21.450;2024-01-15T03:50:22;99000;;;0.56;83
84283;BME280;74440;52.600;21.450;2024-01-15T03:54:25;99000;;;0.59;83
84283;BME280;74440;52.600;21.450;2024-01-15T03:58:27;99000;;;0.65;83
84283;BME280;74440;52.600;21.450;2024-01-15T04:02:29;99000;;;0.50;83
84283;BME280;74440;52.600;21.450;2024-01-15T04:06:30;99000;;;0.53;83
84283;BME280;74440;52.600;21.450;2024-01-15T04:10:32;99000;;;0.56;83
84283;BME280;74440;52.600;21.450;2024-01-15T04:14:34;99000;;;0.64;82
84283;BME280;74440;52.600;21.450;2024-01-15T04:18:49;99000;;;0.65;82
84283;BME280;74440;52.600;21.450;2024-01-15T04:22:50;98900;;;0.51;82
84283;BME280;74440;52.600;21.450;2024-01-15T04:26:52;98900;;;0.52;82
84283;BME280;74440;52.600;21.450;2024-01-15T04:30:53;98900;;;0.58;82
84283;BME280;74440;52.600;21.450;2024-01-15T04:34:55;98900;;;0.64;82
84283;BME280;74440;52.600;21.450;2024-01-15T04:38:56;98900;;;0.52;83
84283;BME280;74440;52.600;21.450;2024-01-15T04:42:58;98900;;;0.54;83
84283;BME280;74440;52.600;21.450;2024-01-15T04:46:59;98900;;;0.54;83
84283;BME280;74440;52.600;21.450;2024-01-15T04:51:04;98900;;;0.58;83
84283;BME280;74440;52.600;21.450;2024-01-15T04:55:18;98900;;;0.55;83
84283;BME280;74440;52.600;21.450;2024-01-15T04:59:20;98900;;;0.44;83
84283;BME280;74440;52.600;21.450;2024-01-15T05:03:21;98900;;;0.42;83
84283;BME280;74440;52.600;21.450;2024-01-15T05:07:23;98900;;;0.44;83
84283;BME280;74440;52.600;21.450;2024-01-15T05:11:24;98900;;;0.53;83
84283;BME280;74440;52.600;21.450;2024-01-15T05:15:26;98900;;;0.44;83
84283;BME280;74440;52.600;21.450;2024-01-15T05:19:27;98900;;;0.48;83
84283;BME280;74440;52.600;21.450;2024-01-15T05:23:31;98900;;;0.56;82
84283;BME280;74440;52.600;21.450;2024-01-15T05:27:32;98900;;;0.63;82
84283;BME280;74440;52.600;21.450;2024-01-15T05:31:48;98900;;;0.65;82
84283;BME280;74440;52.600;21.450;2024-01-15T05:35:50;98900;;;0.56;82
84283;BME280;74440;52.600;21.450;2024-01-15T05:39:51;98900;;;0.60;82
84283;BME280;74440;52.600;21.450;2024-01-15T05:43:54;98900;;;0.65;81
84283;BME280;74440;52.600;21.450;2024-01-15T05:47:56;98900;;;0.70;81
84283;BME280;74440;52.600;21.450;2024-01-15T05:51:58;98900;;;0.59;81
84283;BME280;74440;52.600;21.450;2024-01-15T05:55:59;98900;;;0.63;81
84283;BME280;74440;52.600;21.450;2024-01-15T06:00:03;98900;;;0.65;81
84283;BME280;74440;52.600;21.450;2024-01-15T06:04:05;98900;;;0.71;81
84283;BME280;74440;52.600;21.450;2024-01-15T06:08:18;98900;;;0.72;81
84283;BME280;74440;52.600;21.450;2024-01-15T06:12:22;98900;;;0.62;81
84283;BME280;74440;52.600;21.450;2024-01-15T06:16:24;98800;;;0.64;81
84283;BME280;74440;52.600;21.450;2024-01-15T06:20:25;98800;;;0.68;81
84283;BME280;74440;52.600;21.450;2024-01-15T06:24:27;98800;;;0.70;81
84283;BME280;74440;52.600;21.450;2024-01-15T06:28:28;98800;;;0.59;82
84283;BME280;74440;52.600;21.450;2024-01-15T06:32:30;98800;;;0.59;82
84283;BME280;74440;52.600;21.450;2024-01-15T06:36:31;98800;;;0.63;82
84283;BME280;74440;52.600;21.450;2024-01-15T06:40:33;98800;;;0.70;82
84283;BME280;74440;52.600;21.450;2024-01-15T06:44:47;98800;;;0.71;82
84283;BME280;74440;52.600;21.450;2024-01-15T06:48:49;98800;;;0.61;82
84283;BME280;74440;52.600;21.450;2024-01-15T06:52:51;98800;;;0.64;82
84283;BME280;74440;52.600;21.450;2024-01-15T06:56:52;98800;;;0.69;82
84283;BME280;74440;52.600;21.450;2024-01-15T07:00:54;98800;;;0.74;82
84283;BME280;74440;52.600;21.450;2024-01-15T07:04:55;98800;;;0.64;82
84283;BME280;74440;52.600;21.450;2024-01-15T07:08:57;98800;;;0.72;82
84283;BME280;74440;52.600;21.450;2024-01-15T07:12:58;98800;;;0.77;81
84283;BME280;74440;52.600;21.450;2024-01-15T07:17:00;98800;;;0.81;81
84283;BME280;74440;52.600;21.450;2024-01-15T07:21:17;98800;;;0.84;81
84283;BME280;74440;52.600;21.450;2024-01-15T07:25:19;98800;;;0.72;81
84283;BME280;74440;52.600;21.450;2024-01-15T07:29:20;98800;;;0.71;81
84283;BME280;74440;52.600;21.450;2024-01-15T07:33:22;98800;;;0.71;82
84283;BME280;74440;52.600;21.450;2024-01-15T07:37:23;98800;;;0.73;82
84283;BME280;74440;52.600;21.450;2024-01-15T07:41:25;98800;;;0.56;83
84283;BME280;74440;52.600;21.450;2024-01-15T07:45:26;98800;;;0.55;83
84283;BME280;74440;52.600;21.450;2024-01-15T07:49:28;98800;;;0.58;83
84283;BME280;74440;52.600;21.450;2024-01-15T07:53:29;98800;;;0.64;83
84283;BME280;74440;52.600;21.450;2024-01-15T07:57:47;98800;;;0.64;83
84283;BME280;74440;52.600;21.450;2024-01-15T08:01:49;98800;;;0.51;83
84283;BME280;74440;52.600;21.450;2024-01-15T08:05:50;98800;;;0.54;83
84283;BME280;74440;52.600;21.450;2024-01-15T08:09:55;98800;;;0.59;82
84283;BME280;74440;52.600;21.450;2024-01-15T08:13:56;98800;;;0.64;82
84283;BME280;74440;52.600;21.450;2024-01-15T08:17:58;98800;;;0.51;82
84283;BME280;74440;52.600;21.450;2024-01-15T08:22:00;98800;;;0.53;82
84283;BME280;74440;52.600;21.450;2024-01-15T08:26:02;98800;;;0.58;82
84283;BME280;74440;52.600;21.450;2024-01-15T08:30:04;98800;;;0.73;82
84283;BME280;74440;52.600;21.450;2024-01-15T08:34:16;98800;;;0.81;81
84283;BME280;74440;52.600;21.450;2024-01-15T08:38:18;98800;;;0.71;81
84283;BME280;74440;52.600;21.450;2024-01-15T08:42:20;98800;;;0.76;81
84283;BME280;74440;52.600;21.450;2024-01-15T08:46:22;98800;;;0.85;81
84283;BME280;74440;52.600;21.450;2024-01-15T08:50:25;98800;;;1.00;80
84283;BME280;74440;52.600;21.450;2024-01-15T08:54:26;98800;;;0.88;80
84283;BME280;74440;52.600;21.450;2024-01-15T08:58:28;98800;;;0.89;80
84283;BME280;74440;52.600;21.450;2024-01-15T09:02:29;98800;;;1.01;80
84283;BME280;74440;52.600;21.450;2024-01-15T09:06:31;98800;;;1.15;79
84283;BME280;74440;52.600;21.450;2024-01-15T09:10:46;98800;;;1.23;78
84283;BME280;74440;52.600;21.450;2024-01-15T09:14:48;98800;;;1.22;78
84283;BME280;74440;52.600;21.450;2024-01-15T09:18:51;98800;;;1.45;77
84283;BME280;74440;52.600;21.450;2024-01-15T09:22:52;98800;;;1.73;76
84283;BME280;74440;52.600;21.450;2024-01-15T09:26:54;98800;;;1.97;75
84283;BME280;74440;52.600;21.450;2024-01-15T09:30:56;98800;;;1.87;75
84283;BME280;74440;52.600;21.450;2024-01-15T09:34:57;98800;;;1.93;74
84283;BME280;74440;52.600;21.450;2024-01-15T09:38:59;98800;;;2.02;74
84283;BME280;74440;52.600;21.450;2024-01-15T09:43:02;98800;;;2.22;73
84283;BME280;74440;52.600;21.450;2024-01-15T09:47:17;98800;;;2.35;72
84283;BME280;74440;52.600;21.450;2024-01-15T09:51:20;98800;;;2.12;72
84283;BME280;74440;52.600;21.450;2024-01-15T09:55:22;98800;;;2.00;71
84283;BME280;74440;52.600;21.450;2024-01-15T09:59:24;98800;;;1.90;72
84283;BME280;74440;52.600;21.450;2024-01-15T10:03:27;98800;;;1.84;72
84283;BME280;74440;52.600;21.450;2024-01-15T10:07:29;98800;;;1.65;72
84283;BME280;74440;52.600;21.450;2024-01-15T10:11:32;98800;;;1.65;73
84283;BME280;74440;52.600;21.450;2024-01-15T10:15:34;98800;;;1.62;73
84283;BME280;74440;52.600;21.450;2024-01-15T10:19:38;98800;;;1.60;73
84283;BME280;74440;52.600;21.450;2024-01-15T10:23:46;98800;;;1.64;74
84283;BME280;74440;52.600;21.450;2024-01-15T10:32:00;98800;;;1.49;73
84283;BME280;74440;52.600;21.450;2024-01-15T10:36:02;98800;;;1.59;73
84283;BME280;74440;52.600;21.450;2024-01-15T10:40:05;98800;;;1.73;72
84283;BME280;74440;52.600;21.450;2024-01-15T10:44:18;98800;;;1.86;72
84283;BME280;74440;52.600;21.450;2024-01-15T10:48:20;98800;;;1.86;72
84283;BME280;74440;52.600;21.450;2024-01-15T10:52:22;98800;;;1.95;71
84283;BME280;74440;52.600;21.450;2024-01-15T10:56:25;98800;;;1.99;71
84283;BME280;74440;52.600;21.450;2024-01-15T11:00:29;98800;;;2.08;70
84283;BME280;74440;52.600;21.450;2024-01-15T11:04:32;98800;;;2.08;70
84283;BME280;74440;52.600;21.450;2024-01-15T11:08:34;98800;;;2.24;69
84283;BME280;74440;52.600;21.450;2024-01-15T11:12:36;98800;;;2.15;69
84283;BME280;74440;52.600;21.450;2024-01-15T11:33:34;98800;;;2.14;68
84283;BME280;74440;52.600;21.450;2024-01-15T11:41:49;98800;;;2.11;68
84283;BME280;74440;52.600;21.450;2024-01-15T11:46:12;98800;;;2.11;68
84283;BME280;74440;52.600;21.450;2024-01-15T11:50:17;98800;;;1.90;69
84283;BME280;74440;52.600;21.450;2024-01-15T11:54:20;98800;;;1.88;70
84283;BME280;74440;52.600;21.450;2024-01-15T11:58:24;98700;;;1.83;69
84283;BME280;74440;52.600;21.450;2024-01-15T12:02:26;98700;;;1.83;70
84283;BME280;74440;52.600;21.450;2024-01-15T12:06:36;98700;;;1.87;70
84283;BME280;74440;52.600;21.450;2024-01-15T12:10:38;98800;;;1.75;70
84283;BME280;74440;52.600;21.450;2024-01-15T12:14:41;98800;;;1.68;71
84283;BME280;74440;52.600;21.450;2024-01-15T12:18:43;98800;;;1.54;71
84283;BME280;74440;52.600;21.450;2024-01-15T12:22:45;98800;;;1.45;72
84283;BME280;74440;52.600;21.450;2024-01-15T12:26:47;98700;;;1.29;72
84283;BME280;74440;52.600;21.450;2024-01-15T12:30:49;98800;;;1.32;72
84283;BME280;74440;52.600;21.450;2024-01-15T12:34:51;98800;;;1.33;72
84283;BME280;74440;52.600;21.450;2024-01-15T12:38:53;98700;;;1.34;72
84283;BME280;74440;52.600;21.450;2024-01-15T12:43:06;98700;;;1.36;72
84283;BME280;74440;52.600;21.450;2024-01-15T12:47:08;98700;;;1.23;73
84283;BME280;74440;52.600;21.450;2024-01-15T12:51:09;98700;;;1.25;73
84283;BME280;74440;52.600;21.450;2024-01-15T12:55:11;98700;;;1.24;74
84283;BME280;74440;52.600;21.450;2024-01-15T12:59:14;98700;;;1.21;75
84283;BME280;74440;52.600;21.450;2024-01-15T13:05:49;98700;;;0.94;77
84283;BME280;74440;52.600;21.450;2024-01-15T13:09:53;98800;;;0.90;77
84283;BME280;74440;52.600;21.450;2024-01-15T13:13:54;98800;;;0.84;77
84283;BME280;74440;52.600;21.450;2024-01-15T13:17:56;98800;;;0.87;77
84283;BME280;74440;52.600;21.450;2024-01-15T13:21:59;98700;;;0.70;77
84283;BME280;74440;52.600;21.450;2024-01-15T13:26:01;98700;;;0.72;77
84283;BME280;74440;52.600;21.450;2024-01-15T13:30:04;98800;;;0.79;76
84283;BME280;74440;52.600;21.450;2024-01-15T13:34:08;98800;;;0.82;76
84283;BME280;74440;52.600;21.450;2024-01-15T13:38:18;98800;;;0.82;76
84283;BME280;74440;52.600;21.450;2024-01-15T13:42:20;98700;;;0.73;76
84283;BME280;74440;52.600;21.450;2024-01-15T13:46:25;98800;;;0.73;76
84283;BME280;74440;52.600;21.450;2024-01-15T13:50:31;98800;;;0.78;76
84283;BME280;74440;52.600;21.450;2024-01-15T13:54:32;98800;;;0.86;75
84283;BME280;74440;52.600;21.450;2024-01-15T13:58:50;98800;;;0.88;75
84283;BME280;74440;52.600;21.450;2024-01-15T14:02:53;98800;;;0.81;75
84283;BME280;74440;52.600;21.450;2024-01-15T14:06:54;98800;;;0.83;75
84283;BME280;74440;52.600;21.450;2024-01-15T14:10:56;98800;;;0.86;75
84283;BME280;74440;52.600;21.450;2024-01-15T14:14:59;98800;;;0.89;75
84283;BME280;74440;52.600;21.450;2024-01-15T14:19:00;98800;;;0.76;75
84283;BME280;74440;52.600;21.450;2024-01-15T14:23:03;98800;;;0.78;74
84283;BME280;74440;52.600;21.450;2024-01-15T14:27:05;98800;;;0.81;75
84283;BME280;74440;52.600;21.450;2024-01-15T14:31:08;98800;;;0.84;75
84283;BME280;74440;52.600;21.450;2024-01-15T14:35:20;98800;;;0.86;74
84283;BME280;74440;52.600;21.450;2024-01-15T14:39:22;98800;;;0.73;74
84283;BME280;74440;52.600;21.450;2024-01-15T14:43:23;98800;;;0.78;74
84283;BME280;74440;52.600;21.450;2024-01-15T14:47:25;98800;;;0.79;74
84283;BME280;74440;52.600;21.450;2024-01-15T14:51:28;98700;;;0.80;74
84283;BME280;74440;52.600;21.450;2024-01-15T14:55:30;98700;;;0.65;74
84283;BME280;74440;52.600;21.450;2024-01-15T14:59:33;98700;;;0.65;74
84283;BME280;74440;52.600;21.450;2024-01-15T15:03:35;98700;;;0.67;74
84283;BME280;74440;52.600;21.450;2024-01-15T15:07:36;98700;;;0.71;74
84283;BME280;74440;52.600;21.450;2024-01-15T15:11:49;98700;;;0.66;75
84283;BME280;74440;52.600;21.450;2024-01-15T15:15:53;98700;;;0.50;75
84283;BME280;74440;52.600;21.450;2024-01-15T15:19:55;98700;;;0.49;75
84283;BME280;74440;52.600;21.450;2024-01-15T15:23:57;98700;;;0.52;76
84283;BME280;74440;52.600;21.450;2024-01-15T15:27:59;98700;;;0.55;76
84283;BME280;74440;52.600;21.450;2024-01-15T15:32:01;98700;;;0.37;77
84283;BME280;74440;52.600;21.450;2024-01-15T15:36:04;98700;;;0.33;78
84283;BME280;74440;52.600;21.450;2024-01-15T15:40:07;98700;;;0.32;78
84283;BME280;74440;52.600;21.450;2024-01-15T15:44:09;98700;;;0.35;78
84283;BME280;74440;52.600;21.450;2024-01-15T15:48:19;98700;;;0.40;77
84283;BME280;74440;52.600;21.450;2024-01-15T15:52:21;98700;;;0.37;77
84283;BME280;74440;52.600;21.450;2024-01-15T15:56:23;98700;;;0.44;77
84283;BME280;74440;52.600;21.450;2024-01-15T16:00:26;98700;;;0.47;77
84283;BME280;74440;52.600;21.450;2024-01-15T16:04:28;98700;;;0.50;78
84283;BME280;74440;52.600;21.450;2024-01-15T16:08:29;98700;;;0.35;79
84283;BME280;74440;52.600;21.450;2024-01-15T16:12:31;98800;;;0.37;79
84283;BME280;74440;52.600;21.450;2024-01-15T16:16:32;98800;;;0.42;79
84283;BME280;74440;52.600;21.450;2024-01-15T16:20:34;98800;;;0.48;81
84283;BME280;74440;52.600;21.450;2024-01-15T16:24:49;98800;;;0.34;82
84283;BME280;74440;52.600;21.450;2024-01-15T16:28:50;98800;;;0.09;82
84283;BME280;74440;52.600;21.450;2024-01-15T16:32:55;98800;;;0.05;82
84283;BME280;74440;52.600;21.450;2024-01-15T16:36:57;98800;;;0.08;83
84283;BME280;74440;52.600;21.450;2024-01-15T16:40:58;98800;;;0.10;83
84283;BME280;74440;52.600;21.450;2024-01-15T16:45:00;98800;;;-0.04;83
84283;BME280;74440;52.600;21.450;2024-01-15T16:49:04;98800;;;-0.03;83
84283;BME280;74440;52.600;21.450;2024-01-15T16:53:12;98800;;;-0.04;83
84283;BME280;74440;52.600;21.450;2024-01-15T16:57:14;98800;;;-0.01;83
84283;BME280;74440;52.600;21.450;2024-01-15T17:01:19;98800;;;0.01;83
84283;BME280;74440;52.600;21.450;2024-01-15T17:05:25;98800;;;-0.08;82
84283;BME280;74440;52.600;21.450;2024-01-15T17:09:26;98800;;;-0.08;82
84283;BME280;74440;52.600;21.450;2024-01-15T17:13:28;98800;;;-0.13;82
84283;BME280;74440;52.600;21.450;2024-01-15T17:17:30;98800;;;-0.18;82
84283;BME280;74440;52.600;21.450;2024-01-15T17:21:32;98800;;;-0.37;82
84283;BME280;74440;52.600;21.450;2024-01-15T17:25:33;98800;;;-0.39;82
84283;BME280;74440;52.600;21.450;2024-01-15T17:29:36;98800;;;-0.36;82
84283;BME280;74440;52.600;21.450;2024-01-15T17:33:39;98800;;;-0.31;82
84283;BME280;74440;52.600;21.450;2024-01-15T17:37:49;98800;;;-0.29;82
84283;BME280;74440;52.600;21.450;2024-01-15T17:41:51;98800;;;-0.39;82
84283;BME280;74440;52.600;21.450;2024-01-15T17:45:53;98800;;;-0.39;82
84283;BME280;74440;52.600;21.450;2024-01-15T17:49:59;98800;;;-0.38;81
84283;BME280;74440;52.600;21.450;2024-01-15T17:54:01;98800;;;-0.35;81
84283;BME280;74440;52.600;21.450;2024-01-15T17:58:21;98800;;;-0.33;81
84283;BME280;74440;52.600;21.450;2024-01-15T18:02:22;98800;;;-0.40;81
84283;BME280;74440;52.600;21.450;2024-01-15T18:06:24;98800;;;-0.34;81
84283;BME280;74440;52.600;21.450;2024-01-15T18:10:25;98800;;;-0.27;80
84283;BME280;74440;52.600;21.450;2024-01-15T18:14:27;98800;;;-0.20;80
84283;BME280;74440;52.600;21.450;2024-01-15T18:18:29;98800;;;-0.30;80
84283;BME280;74440;52.600;21.450;2024-01-15T18:22:31;98800;;;-0.29;80
84283;BME280;74440;52.600;21.450;2024-01-15T18:26:32;98800;;;-0.29;79
84283;BME280;74440;52.600;21.450;2024-01-15T18:30:35;98800;;;-0.26;79
84283;BME280;74440;52.600;21.450;2024-01-15T18:34:50;98800;;;-0.27;79
84283;BME280;74440;52.600;21.450;2024-01-15T18:38:52;98800;;;-0.36;79
84283;BME280;74440;52.600;21.450;2024-01-15T18:42:54;98800;;;-0.29;78
84283;BME280;74440;52.600;21.450;2024-01-15T18:46:58;98800;;;-0.23;78
84283;BME280;74440;52.600;21.450;2024-01-15T18:51:02;98800;;;-0.15;78
84283;BME280;74440;52.600;21.450;2024-01-15T18:55:06;98800;;;-0.21;78
84283;BME280;74440;52.600;21.450;2024-01-15T18:59:14;98800;;;-0.16;78
84283;BME280;74440;52.600;21.450;2024-01-15T19:03:16;98800;;;-0.09;77
84283;BME280;74440;52.600;21.450;2024-01-15T19:07:18;98800;;;-0.05;77
84283;BME280;74440;52.600;21.450;2024-01-15T19:11:29;98900;;;-0.05;77
84283;BME280;74440;52.600;21.450;2024-01-15T19:15:34;98800;;;-0.21;77
84283;BME280;74440;52.600;21.450;2024-01-15T19:19:35;98900;;;-0.17;76
84283;BME280;74440;52.600;21.450;2024-01-15T19:23:38;98900;;;-0.15;75
84283;BME280;74440;52.600;21.450;2024-01-15T19:27:40;98900;;;-0.14;74
84283;BME280;74440;52.600;21.450;2024-01-15T19:32:01;98900;;;-0.15;73
84283;BME280;74440;52.600;21.450;2024-01-15T19:36:03;98900;;;-0.32;73
84283;BME280;74440;52.600;21.450;2024-01-15T19:40:05;98900;;;-0.37;72
84283;BME280;74440;52.600;21.450;2024-01-15T19:44:07;98900;;;-0.42;72
84283;BME280;74440;52.600;21.450;2024-01-15T19:48:09;98900;;;-0.47;70
84283;BME280;74440;52.600;21.450;2024-01-15T19:52:12;98900;;;-0.74;70
84283;BME280;74440;52.600;21.450;2024-01-15T19:56:14;98900;;;-0.86;69
84283;BME280;74440;52.600;21.450;2024-01-15T20:00:18;98900;;;-0.91;69
84283;BME280;74440;52.600;21.450;2024-01-15T20:04:19;98900;;;-0.86;70
84283;BME280;74440;52.600;21.450;2024-01-15T20:08:30;98900;;;-0.90;69
84283;BME280;74440;52.600;21.450;2024-01-15T20:12:32;98900;;;-1.11;70
84283;BME280;74440;52.600;21.450;2024-01-15T20:16:39;98900;;;-1.15;70
84283;BME280;74440;52.600;21.450;2024-01-15T20:20:41;98900;;;-1.17;69
84283;BME280;74440;52.600;21.450;2024-01-15T20:24:43;98900;;;-1.17;69
84283;BME280;74440;52.600;21.450;2024-01-15T20:28:45;98900;;;-1.34;69
84283;BME280;74440;52.600;21.450;2024-01-15T20:32:48;99000;;;-1.35;69
84283;BME280;74440;52.600;21.450;2024-01-15T20:36:54;99000;;;-1.32;69
84283;BME280;74440;52.600;21.450;2024-01-15T20:40:56;98900;;;-1.26;69
84283;BME280;74440;52.600;21.450;2024-01-15T20:45:03;99000;;;-1.20;69
84283;BME280;74440;52.600;21.450;2024-01-15T20:49:05;99000;;;-1.29;69
84283;BME280;74440;52.600;21.450;2024-01-15T20:53:07;99000;;;-1.23;69
84283;BME280;74440;52.600;21.450;2024-01-15T20:57:08;99000;;;-1.16;69
84283;BME280;74440;52.600;21.450;2024-01-15T21:01:10;99000;;;-1.07;68
84283;BME280;74440;52.600;21.450;2024-01-15T21:05:12;99000;;;-1.18;69
84283;BME280;74440;52.600;21.450;2024-01-15T21:09:14;99000;;;-1.14;69
84283;BME280;74440;52.600;21.450;2024-01-15T21:13:15;99000;;;-1.09;69
84283;BME280;74440;52.600;21.450;2024-01-15T21:17:17;99000;;;-1.00;68
84283;BME280;74440;52.600;21.450;2024-01-15T21:21:32;99000;;;-0.99;69
84283;BME280;74440;52.600;21.450;2024-01-15T21:25:34;99000;;;-1.09;69
84283;BME280;74440;52.600;21.450;2024-01-15T21:29:35;99000;;;-1.06;69
84283;BME280;74440;52.600;21.450;2024-01-15T21:33:37;99000;;;-1.03;69
84283;BME280;74440;52.600;21.450;2024-01-15T21:37:45;99000;;;-1.02;70
84283;BME280;74440;52.600;21.450;2024-01-15T21:41:47;99000;;;-1.15;70
84283;BME280;74440;52.600;21.450;2024-01-15T21:45:50;99000;;;-1.15;70
84283;BME280;74440;52.600;21.450;2024-01-15T21:49:51;99000;;;-1.13;71
84283;BME280;74440;52.600;21.450;2024-01-15T21:53:53;99000;;;-1.15;71
84283;BME280;74440;52.600;21.450;2024-01-15T21:58:05;99100;;;-1.18;72
84283;BME280;74440;52.600;21.450;2024-01-15T22:02:06;99100;;;-1.33;72
84283;BME280;74440;52.600;21.450;2024-01-15T22:06:11;99100;;;-1.36;72
84283;BME280;74440;52.600;21.450;2024-01-15T22:10:12;99100;;;-1.37;72
84283;BME280;74440;52.600;21.450;2024-01-15T22:14:14;99100;;;-1.33;73
84283;BME280;74440;52.600;21.450;2024-01-15T22:18:15;99100;;;-1.46;74
84283;BME280;74440;52.600;21.450;2024-01-15T22:22:18;99100;;;-1.48;75
84283;BME280;74440;52.600;21.450;2024-01-15T22:26:19;99100;;;-1.49;75
84283;BME280;74440;52.600;21.450;2024-01-15T22:30:21;99100;;;-1.46;75
84283;BME280;74440;52.600;21.450;2024-01-15T22:34:35;99200;;;-1.44;76
84283;BME280;74440;52.600;21.450;2024-01-15T22:38:36;99200;;;-1.57;76
84283;BME280;74440;52.600;21.450;2024-01-15T22:42:38;99200;;;-1.57;76
84283;BME280;74440;52.600;21.450;2024-01-15T22:46:39;99200;;;-1.57;76
84283;BME280;74440;52.600;21.450;2024-01-15T22:50:41;99200;;;-1.53;75
84283;BME280;74440;52.600;21.450;2024-01-15T22:54:43;99200;;;-1.67;75
84283;BME280;74440;52.600;21.450;2024-01-15T22:58:45;99200;;;-1.68;75
84283;BME280;74440;52.600;21.450;2024-01-15T23:02:47;99200;;;-1.66;74
84283;BME280;74440;52.600;21.450;2024-01-15T23:06:49;99200;;;-1.64;74
84283;BME280;74440;52.600;21.450;2024-01-15T23:11:04;99200;;;-1.62;75
84283;BME280;74440;52.600;21.450;2024-01-15T23:15:06;99200;;;-1.70;75
84283;BME280;74440;52.600;21.450;2024-01-15T23:19:08;99200;;;-1.65;74
84283;BME280;74440;52.600;21.450;2024-01-15T23:23:09;99200;;;-1.64;74
84283;BME280;74440;52.600;21.450;2024-01-15T23:27:11;99300;;;-1.49;81
84283;BME280;74440;52.600;21.450;2024-01-15T23:31:12;99300;;;-0.61;84
84283;BME280;74440;52.600;21.450;2024-01-15T23:35:14;99300;;;-0.56;76
84283;BME280;74440;52.600;21.450;2024-01-15T23:39:16;99300;;;-0.69;73
84283;BME280;74440;52.600;21.450;2024-01-15T23:43:17;99300;;;-0.82;72